sensor_id;sensor_type;location;lat;lon;timestamp;temperature;humidity
14735;DHT22;7458;49.002;8.472;2022-12-18T00:04:25;-5.50;99.90
14735;DHT22;7458;49.002;8.472;2022-12-18T00:06:52;-5.60;99.90
14735;DHT22;7458;49.002;8.472;2022-12-18T00:09:18;-5.60;99.90
14735;DHT22;7458;49.002;8.472;2022-12-18T00:11:44;-5.60;99.90
14735;DHT22;7458;49.002;8.472;2022-12-18T00:14:11;-3.80;99.90
14735;DHT22;7458;49.002;8.472;2022-12-18T00:16:38;-5.30;99.90
14735;DHT22;7458;49.002;8.472;2022-12-18T00:19:05;-5.70;99.90
14735;DHT22;7458;49.002;8.472;2022-12-18T00:21:32;-5.80;99.90
14735;DHT22;7458;49.002;8.472;2022-12-18T00:23:58;-4.40;99.90
14735;DHT22;7458;49.002;8.472;2022-12-18T00:26:27;-5.70;99.90
14735;DHT22;7458;49.002;8.472;2022-12-18T00:28:58;-5.70;99.90
14735;DHT22;7458;49.002;8.472;2022-12-18T00:31:26;-5.70;99.90
14735;DHT22;7458;49.002;8.472;2022-12-18T00:33:54;-5.80;99.90
14735;DHT22;7458;49.002;8.472;2022-12-18T00:36:23;-5.90;99.90
14735;DHT22;7458;49.002;8.472;2022-12-18T00:38:51;-5.70;99.90
14735;DHT22;7458;49.002;8.472;2022-12-18T00:41:19;-6.10;99.90
14735;DHT22;7458;49.002;8.472;2022-12-18T00:44:05;-6.00;99.90
14735;DHT22;7458;49.002;8.472;2022-12-18T00:46:32;-5.50;99.90
14735;DHT22;7458;49.002;8.472;2022-12-18T00:48:58;-6.00;99.90
14735;DHT22;7458;49.002;8.472;2022-12-18T00:51:24;-6.00;99.90
14735;DHT22;7458;49.002;8.472;2022-12-18T00:53:50;-6.10;99.90
14735;DHT22;7458;49.002;8.472;2022-12-18T00:56:16;-6.10;99.90
14735;DHT22;7458;49.002;8.472;2022-12-18T00:58:42;-6.10;99.90
14735;DHT22;7458;49.002;8.472;2022-12-18T01:01:08;-6.00;99.90
14735;DHT22;7458;49.002;8.472;2022-12-18T01:03:34;-6.00;99.90
14735;DHT22;7458;49.002;8.472;2022-12-18T01:06:06;-6.00;99.90
14735;DHT22;7458;49.002;8.472;2022-12-18T01:08:33;-6.10;99.90
14735;DHT22;7458;49.002;8.472;2022-12-18T01:10:59;-6.10;99.90
14735;DHT22;7458;49.002;8.472;2022-12-18T01:13:24;-6.20;99.90
14735;DHT22;7458;49.002;8.472;2022-12-18T01:15:50;-6.30;99.90
14735;DHT22;7458;49.002;8.472;2022-12-18T01:18:16;-6.20;99.90
14735;DHT22;7458;49.002;8.472;2022-12-18T01:20:42;-6.30;99.90
14735;DHT22;7458;49.002;8.472;2022-12-18T01:23:08;-6.30;99.90
14735;DHT22;7458;49.002;8.472;2022-12-18T01:25:35;-6.30;99.90
14735;DHT22;7458;49.002;8.472;2022-12-18T01:28:02;-6.30;99.90
14735;DHT22;7458;49.002;8.472;2022-12-18T01:30:28;-6.20;99.90
14735;DHT22;7458;49.002;8.472;2022-12-18T01:32:54;-6.10;99.90
14735;DHT22;7458;49.002;8.472;2022-12-18T01:35:19;-6.10;99.90
14735;DHT22;7458;49.002;8.472;2022-12-18T01:37:45;-6.10;99.90
14735;DHT22;7458;49.002;8.472;2022-12-18T01:40:11;-6.10;99.90
14735;DHT22;7458;49.002;8.472;2022-12-18T01:42:37;-6.00;99.90
14735;DHT22;7458;49.002;8.472;2022-12-18T01:48:02;-6.10;99.90
14735;DHT22;7458;49.002;8.472;2022-12-18T01:50:42;-6.10;99.90
14735;DHT22;7458;49.002;8.472;2022-12-18T01:53:21;-6.10;99.90
14735;DHT22;7458;49.002;8.472;2022-12-18T01:55:53;-6.30;99.90
14735;DHT22;7458;49.002;8.472;2022-12-18T01:58:47;-6.20;99.90
14735;DHT22;7458;49.002;8.472;2022-12-18T02:03:45;-6.40;99.90
14735;DHT22;7458;49.002;8.472;2022-12-18T02:06:42;-6.40;99.90
14735;DHT22;7458;49.002;8.472;2022-12-18T02:09:13;-6.30;99.90
14735;DHT22;7458;49.002;8.472;2022-12-18T02:12:04;-6.40;99.90
14735;DHT22;7458;49.002;8.472;2022-12-18T02:14:55;-6.40;99.90
14735;DHT22;7458;49.002;8.472;2022-12-18T02:20:24;-6.40;99.90
14735;DHT22;7458;49.002;8.472;2022-12-18T02:26:08;-6.40;99.90
14735;DHT22;7458;49.002;8.472;2022-12-18T02:28:43;-6.40;99.90
14735;DHT22;7458;49.002;8.472;2022-12-18T02:31:17;-5.60;99.90
14735;DHT22;7458;49.002;8.472;2022-12-18T02:34:00;-6.50;99.90
14735;DHT22;7458;49.002;8.472;2022-12-18T02:36:31;-6.50;99.90
14735;DHT22;7458;49.002;8.472;2022-12-18T02:39:02;-6.50;99.90
14735;DHT22;7458;49.002;8.472;2022-12-18T02:41:31;-6.50;99.90
14735;DHT22;7458;49.002;8.472;2022-12-18T02:44:01;-6.50;99.90
14735;DHT22;7458;49.002;8.472;2022-12-18T02:46:37;-6.50;99.90
14735;DHT22;7458;49.002;8.472;2022-12-18T02:49:12;-6.40;99.90
14735;DHT22;7458;49.002;8.472;2022-12-18T02:55:06;-6.50;99.90
14735;DHT22;7458;49.002;8.472;2022-12-18T02:57:55;-6.60;99.90
14735;DHT22;7458;49.002;8.472;2022-12-18T03:03:30;-6.60;99.90
14735;DHT22;7458;49.002;8.472;2022-12-18T03:06:21;-6.60;99.90
14735;DHT22;7458;49.002;8.472;2022-12-18T03:09:02;-6.60;99.90
14735;DHT22;7458;49.002;8.472;2022-12-18T03:11:34;-6.60;99.90
14735;DHT22;7458;49.002;8.472;2022-12-18T03:14:25;-6.60;99.90
14735;DHT22;7458;49.002;8.472;2022-12-18T03:17:02;-6.60;99.90
14735;DHT22;7458;49.002;8.472;2022-12-18T03:19:32;-6.80;99.90
14735;DHT22;7458;49.002;8.472;2022-12-18T03:22:02;-6.70;99.90
14735;DHT22;7458;49.002;8.472;2022-12-18T03:24:31;-6.70;99.90
14735;DHT22;7458;49.002;8.472;2022-12-18T03:27:01;-6.70;99.90
14735;DHT22;7458;49.002;8.472;2022-12-18T03:29:41;-6.60;99.90
14735;DHT22;7458;49.002;8.472;2022-12-18T03:32:16;-6.60;99.90
14735;DHT22;7458;49.002;8.472;2022-12-18T03:34:59;-6.60;99.90
14735;DHT22;7458;49.002;8.472;2022-12-18T03:37:33;-6.60;99.90
14735;DHT22;7458;49.002;8.472;2022-12-18T03:39:59;-6.60;99.90
14735;DHT22;7458;49.002;8.472;2022-12-18T03:42:26;-6.70;99.90
14735;DHT22;7458;49.002;8.472;2022-12-18T03:47:58;-6.60;99.90
14735;DHT22;7458;49.002;8.472;2022-12-18T03:50:54;-6.70;99.90
14735;DHT22;7458;49.002;8.472;2022-12-18T03:53:48;-6.80;99.90
14735;DHT22;7458;49.002;8.472;2022-12-18T03:56:25;-6.70;99.90
14735;DHT22;7458;49.002;8.472;2022-12-18T03:58:55;-6.80;99.90
14735;DHT22;7458;49.002;8.472;2022-12-18T04:01:30;-6.70;99.90
14735;DHT22;7458;49.002;8.472;2022-12-18T04:04:00;-6.60;99.90
14735;DHT22;7458;49.002;8.472;2022-12-18T04:06:29;-6.70;99.90
14735;DHT22;7458;49.002;8.472;2022-12-18T04:08:57;-6.70;99.90
14735;DHT22;7458;49.002;8.472;2022-12-18T04:11:23;-6.80;99.90
14735;DHT22;7458;49.002;8.472;2022-12-18T04:13:49;-6.80;99.90
14735;DHT22;7458;49.002;8.472;2022-12-18T04:16:15;-6.40;99.90
14735;DHT22;7458;49.002;8.472;2022-12-18T04:18:41;-6.80;99.90
14735;DHT22;7458;49.002;8.472;2022-12-18T04:21:07;-4.60;99.90
14735;DHT22;7458;49.002;8.472;2022-12-18T04:23:33;-6.70;99.90
14735;DHT22;7458;49.002;8.472;2022-12-18T04:25:58;-6.70;99.90
14735;DHT22;7458;49.002;8.472;2022-12-18T04:28:24;-6.60;99.90
14735;DHT22;7458;49.002;8.472;2022-12-18T04:30:50;-6.60;99.90
14735;DHT22;7458;49.002;8.472;2022-12-18T04:33:18;-4.90;99.90
14735;DHT22;7458;49.002;8.472;2022-12-18T04:35:45;-6.60;99.90
14735;DHT22;7458;49.002;8.472;2022-12-18T04:38:11;-6.60;99.90
14735;DHT22;7458;49.002;8.472;2022-12-18T04:40:37;-6.60;99.90
14735;DHT22;7458;49.002;8.472;2022-12-18T04:43:03;-6.50;99.90
14735;DHT22;7458;49.002;8.472;2022-12-18T04:45:31;-6.60;99.90
14735;DHT22;7458;49.002;8.472;2022-12-18T04:48:01;-6.50;99.90
14735;DHT22;7458;49.002;8.472;2022-12-18T04:50:28;-6.50;99.90
14735;DHT22;7458;49.002;8.472;2022-12-18T04:52:54;-6.40;99.90
14735;DHT22;7458;49.002;8.472;2022-12-18T04:55:21;-6.40;99.90
14735;DHT22;7458;49.002;8.472;2022-12-18T04:57:52;-6.20;99.90
14735;DHT22;7458;49.002;8.472;2022-12-18T05:00:18;-6.30;99.90
14735;DHT22;7458;49.002;8.472;2022-12-18T05:02:44;-6.20;99.90
14735;DHT22;7458;49.002;8.472;2022-12-18T05:05:10;-6.20;99.90
14735;DHT22;7458;49.002;8.472;2022-12-18T05:07:36;-6.20;99.90
14735;DHT22;7458;49.002;8.472;2022-12-18T05:10:03;-6.20;99.90
14735;DHT22;7458;49.002;8.472;2022-12-18T05:12:32;-6.20;99.90
14735;DHT22;7458;49.002;8.472;2022-12-18T05:14:58;-6.10;99.90
14735;DHT22;7458;49.002;8.472;2022-12-18T05:17:24;-6.10;99.90
14735;DHT22;7458;49.002;8.472;2022-12-18T05:19:50;-6.10;99.90
14735;DHT22;7458;49.002;8.472;2022-12-18T05:22:15;-6.00;99.90
14735;DHT22;7458;49.002;8.472;2022-12-18T05:24:41;-6.00;99.90
14735;DHT22;7458;49.002;8.472;2022-12-18T05:27:07;-6.00;99.90
14735;DHT22;7458;49.002;8.472;2022-12-18T05:29:32;-6.00;99.90
14735;DHT22;7458;49.002;8.472;2022-12-18T05:31:58;-6.00;99.90
14735;DHT22;7458;49.002;8.472;2022-12-18T05:34:24;-5.90;99.90
14735;DHT22;7458;49.002;8.472;2022-12-18T05:36:49;-6.00;99.90
14735;DHT22;7458;49.002;8.472;2022-12-18T05:39:15;-3.60;99.90
14735;DHT22;7458;49.002;8.472;2022-12-18T05:41:41;-6.00;99.90
14735;DHT22;7458;49.002;8.472;2022-12-18T05:44:07;-6.00;99.90
14735;DHT22;7458;49.002;8.472;2022-12-18T05:46:32;-5.90;99.90
14735;DHT22;7458;49.002;8.472;2022-12-18T05:49:01;-6.00;99.90
14735;DHT22;7458;49.002;8.472;2022-12-18T05:51:27;-5.00;99.90
14735;DHT22;7458;49.002;8.472;2022-12-18T05:56:21;-5.90;99.90
14735;DHT22;7458;49.002;8.472;2022-12-18T05:58:52;-5.90;99.90
14735;DHT22;7458;49.002;8.472;2022-12-18T06:01:22;-5.90;99.90
14735;DHT22;7458;49.002;8.472;2022-12-18T06:03:51;-5.00;99.90
14735;DHT22;7458;49.002;8.472;2022-12-18T06:06:22;-5.90;99.90
14735;DHT22;7458;49.002;8.472;2022-12-18T06:08:50;-5.50;99.90
14735;DHT22;7458;49.002;8.472;2022-12-18T06:11:19;-6.00;99.90
14735;DHT22;7458;49.002;8.472;2022-12-18T06:13:50;-6.10;99.90
14735;DHT22;7458;49.002;8.472;2022-12-18T06:16:16;-6.00;99.90
14735;DHT22;7458;49.002;8.472;2022-12-18T06:18:42;-6.00;99.90
14735;DHT22;7458;49.002;8.472;2022-12-18T06:21:08;-5.90;99.90
14735;DHT22;7458;49.002;8.472;2022-12-18T06:23:34;-6.00;99.90
14735;DHT22;7458;49.002;8.472;2022-12-18T06:26:10;-5.90;99.90
14735;DHT22;7458;49.002;8.472;2022-12-18T06:28:37;-5.90;99.90
14735;DHT22;7458;49.002;8.472;2022-12-18T06:31:04;-5.80;99.90
14735;DHT22;7458;49.002;8.472;2022-12-18T06:33:30;-5.80;99.90
14735;DHT22;7458;49.002;8.472;2022-12-18T06:36:03;-5.80;99.90
14735;DHT22;7458;49.002;8.472;2022-12-18T06:38:33;-4.60;99.90
14735;DHT22;7458;49.002;8.472;2022-12-18T06:41:00;-5.80;99.90
14735;DHT22;7458;49.002;8.472;2022-12-18T06:43:26;-5.70;99.90
14735;DHT22;7458;49.002;8.472;2022-12-18T06:46:00;-5.70;99.90
14735;DHT22;7458;49.002;8.472;2022-12-18T06:48:26;-5.70;99.90
14735;DHT22;7458;49.002;8.472;2022-12-18T06:50:52;-5.60;99.90
14735;DHT22;7458;49.002;8.472;2022-12-18T06:53:18;-5.60;99.90
14735;DHT22;7458;49.002;8.472;2022-12-18T06:55:44;-5.60;99.90
14735;DHT22;7458;49.002;8.472;2022-12-18T06:58:09;-5.60;99.90
14735;DHT22;7458;49.002;8.472;2022-12-18T07:00:35;-5.60;99.90
14735;DHT22;7458;49.002;8.472;2022-12-18T07:03:01;-5.60;99.90
14735;DHT22;7458;49.002;8.472;2022-12-18T07:05:27;-5.60;99.90
14735;DHT22;7458;49.002;8.472;2022-12-18T07:07:52;-5.20;99.90
14735;DHT22;7458;49.002;8.472;2022-12-18T07:10:18;-5.50;99.90
14735;DHT22;7458;49.002;8.472;2022-12-18T07:12:44;-5.50;99.90
14735;DHT22;7458;49.002;8.472;2022-12-18T07:15:10;-5.50;99.90
14735;DHT22;7458;49.002;8.472;2022-12-18T07:17:36;-5.40;99.90
14735;DHT22;7458;49.002;8.472;2022-12-18T07:20:02;-5.40;99.90
14735;DHT22;7458;49.002;8.472;2022-12-18T07:22:29;-5.40;99.90
14735;DHT22;7458;49.002;8.472;2022-12-18T07:24:54;-4.80;99.90
14735;DHT22;7458;49.002;8.472;2022-12-18T07:27:21;-5.00;99.90
14735;DHT22;7458;49.002;8.472;2022-12-18T07:29:47;-5.10;99.90
14735;DHT22;7458;49.002;8.472;2022-12-18T07:32:13;-5.20;99.90
14735;DHT22;7458;49.002;8.472;2022-12-18T07:34:39;-4.30;99.90
14735;DHT22;7458;49.002;8.472;2022-12-18T07:37:05;-5.30;99.90
14735;DHT22;7458;49.002;8.472;2022-12-18T07:39:31;-5.30;99.90
14735;DHT22;7458;49.002;8.472;2022-12-18T07:41:57;-5.20;99.90
14735;DHT22;7458;49.002;8.472;2022-12-18T07:44:41;-5.20;99.90
14735;DHT22;7458;49.002;8.472;2022-12-18T07:47:07;-5.30;99.90
14735;DHT22;7458;49.002;8.472;2022-12-18T07:49:32;-5.30;99.90
14735;DHT22;7458;49.002;8.472;2022-12-18T07:51:58;-5.30;99.90
14735;DHT22;7458;49.002;8.472;2022-12-18T07:54:24;-5.30;99.90
14735;DHT22;7458;49.002;8.472;2022-12-18T07:56:51;-5.30;99.90
14735;DHT22;7458;49.002;8.472;2022-12-18T07:59:17;-5.40;99.90
14735;DHT22;7458;49.002;8.472;2022-12-18T08:01:43;-5.30;99.90
14735;DHT22;7458;49.002;8.472;2022-12-18T08:04:09;-5.20;99.90
14735;DHT22;7458;49.002;8.472;2022-12-18T08:06:35;-5.20;99.90
14735;DHT22;7458;49.002;8.472;2022-12-18T08:09:01;-5.30;99.90
14735;DHT22;7458;49.002;8.472;2022-12-18T08:11:28;-2.90;99.90
14735;DHT22;7458;49.002;8.472;2022-12-18T08:13:54;-5.10;99.90
14735;DHT22;7458;49.002;8.472;2022-12-18T08:16:21;-5.00;99.90
14735;DHT22;7458;49.002;8.472;2022-12-18T08:18:52;-5.00;99.90
14735;DHT22;7458;49.002;8.472;2022-12-18T08:21:21;-5.10;99.90
14735;DHT22;7458;49.002;8.472;2022-12-18T08:23:50;-5.10;99.90
14735;DHT22;7458;49.002;8.472;2022-12-18T08:26:17;-5.10;99.90
14735;DHT22;7458;49.002;8.472;2022-12-18T08:28:43;-5.10;99.90
14735;DHT22;7458;49.002;8.472;2022-12-18T08:31:09;-5.20;99.90
14735;DHT22;7458;49.002;8.472;2022-12-18T08:33:36;-4.90;99.90
14735;DHT22;7458;49.002;8.472;2022-12-18T08:36:04;-5.20;99.90
14735;DHT22;7458;49.002;8.472;2022-12-18T08:38:32;-5.20;99.90
14735;DHT22;7458;49.002;8.472;2022-12-18T08:41:03;-5.20;99.90
14735;DHT22;7458;49.002;8.472;2022-12-18T08:43:34;-5.30;99.90
14735;DHT22;7458;49.002;8.472;2022-12-18T08:46:20;-5.20;99.90
14735;DHT22;7458;49.002;8.472;2022-12-18T08:48:47;-5.20;99.90
14735;DHT22;7458;49.002;8.472;2022-12-18T08:51:16;-5.20;99.90
14735;DHT22;7458;49.002;8.472;2022-12-18T08:53:43;-5.00;99.90
14735;DHT22;7458;49.002;8.472;2022-12-18T08:56:10;-4.70;99.90
14735;DHT22;7458;49.002;8.472;2022-12-18T08:58:36;-5.00;99.90
14735;DHT22;7458;49.002;8.472;2022-12-18T09:01:06;-4.80;99.90
14735;DHT22;7458;49.002;8.472;2022-12-18T09:03:34;-4.30;99.90
14735;DHT22;7458;49.002;8.472;2022-12-18T09:06:01;-4.40;99.90
14735;DHT22;7458;49.002;8.472;2022-12-18T09:08:27;-4.50;99.90
14735;DHT22;7458;49.002;8.472;2022-12-18T09:10:54;-4.60;99.90
14735;DHT22;7458;49.002;8.472;2022-12-18T09:13:21;-4.80;99.90
14735;DHT22;7458;49.002;8.472;2022-12-18T09:15:49;-4.90;99.90
14735;DHT22;7458;49.002;8.472;2022-12-18T09:18:21;-4.30;99.90
14735;DHT22;7458;49.002;8.472;2022-12-18T09:20:47;-5.10;99.90
14735;DHT22;7458;49.002;8.472;2022-12-18T09:23:15;-4.90;99.90
14735;DHT22;7458;49.002;8.472;2022-12-18T09:25:41;-4.80;99.90
14735;DHT22;7458;49.002;8.472;2022-12-18T09:28:12;-4.70;99.90
14735;DHT22;7458;49.002;8.472;2022-12-18T09:30:44;-4.60;99.90
14735;DHT22;7458;49.002;8.472;2022-12-18T09:33:11;-4.40;99.90
14735;DHT22;7458;49.002;8.472;2022-12-18T09:35:41;-4.30;99.90
14735;DHT22;7458;49.002;8.472;2022-12-18T09:38:17;-3.40;99.90
14735;DHT22;7458;49.002;8.472;2022-12-18T09:40:52;-4.10;99.90
14735;DHT22;7458;49.002;8.472;2022-12-18T09:43:45;-4.00;99.90
14735;DHT22;7458;49.002;8.472;2022-12-18T09:46:30;-3.80;99.90
14735;DHT22;7458;49.002;8.472;2022-12-18T09:49:07;-3.50;99.90
14735;DHT22;7458;49.002;8.472;2022-12-18T09:51:47;-3.40;99.90
14735;DHT22;7458;49.002;8.472;2022-12-18T09:54:35;-3.20;99.90
14735;DHT22;7458;49.002;8.472;2022-12-18T09:57:14;-3.10;99.90
14735;DHT22;7458;49.002;8.472;2022-12-18T09:59:48;-2.90;99.90
14735;DHT22;7458;49.002;8.472;2022-12-18T10:02:23;-1.50;99.90
14735;DHT22;7458;49.002;8.472;2022-12-18T10:05:29;-1.40;99.90
14735;DHT22;7458;49.002;8.472;2022-12-18T10:19:54;-2.00;99.90
14735;DHT22;7458;49.002;8.472;2022-12-18T10:22:56;-1.30;99.90
14735;DHT22;7458;49.002;8.472;2022-12-18T10:25:34;-2.20;99.90
14735;DHT22;7458;49.002;8.472;2022-12-18T10:28:27;-2.20;99.90
14735;DHT22;7458;49.002;8.472;2022-12-18T10:30:55;-2.40;99.90
14735;DHT22;7458;49.002;8.472;2022-12-18T10:33:23;-2.40;99.90
14735;DHT22;7458;49.002;8.472;2022-12-18T10:35:53;-2.50;99.90
14735;DHT22;7458;49.002;8.472;2022-12-18T10:38:28;-1.70;99.90
14735;DHT22;7458;49.002;8.472;2022-12-18T10:41:24;-2.20;99.90
14735;DHT22;7458;49.002;8.472;2022-12-18T10:46:46;-1.70;99.90
14735;DHT22;7458;49.002;8.472;2022-12-18T10:49:26;-1.40;99.90
14735;DHT22;7458;49.002;8.472;2022-12-18T10:52:20;-1.50;99.90
14735;DHT22;7458;49.002;8.472;2022-12-18T10:54:57;-1.20;99.90
14735;DHT22;7458;49.002;8.472;2022-12-18T10:57:34;1.30;99.90
14735;DHT22;7458;49.002;8.472;2022-12-18T11:00:28;0.10;99.90
14735;DHT22;7458;49.002;8.472;2022-12-18T11:02:56;-0.20;99.90
14735;DHT22;7458;49.002;8.472;2022-12-18T11:05:31;-0.20;99.90
14735;DHT22;7458;49.002;8.472;2022-12-18T11:07:59;-0.40;99.90
14735;DHT22;7458;49.002;8.472;2022-12-18T11:10:46;-0.80;99.90
14735;DHT22;7458;49.002;8.472;2022-12-18T11:13:15;-0.80;99.90
14735;DHT22;7458;49.002;8.472;2022-12-18T11:15:44;0.50;99.90
14735;DHT22;7458;49.002;8.472;2022-12-18T11:18:36;-0.80;99.90
14735;DHT22;7458;49.002;8.472;2022-12-18T11:21:11;-0.80;99.90
14735;DHT22;7458;49.002;8.472;2022-12-18T11:23:47;-0.60;99.90
14735;DHT22;7458;49.002;8.472;2022-12-18T11:26:16;0.00;99.90
14735;DHT22;7458;49.002;8.472;2022-12-18T11:29:07;-0.70;99.90
14735;DHT22;7458;49.002;8.472;2022-12-18T11:31:35;-1.70;99.90
14735;DHT22;7458;49.002;8.472;2022-12-18T11:34:20;-0.70;99.90
14735;DHT22;7458;49.002;8.472;2022-12-18T11:36:53;-0.30;99.90
14735;DHT22;7458;49.002;8.472;2022-12-18T11:39:43;-1.40;99.90
14735;DHT22;7458;49.002;8.472;2022-12-18T11:42:40;-1.60;99.90
14735;DHT22;7458;49.002;8.472;2022-12-18T11:50:58;-1.50;99.90
14735;DHT22;7458;49.002;8.472;2022-12-18T11:53:30;-0.30;99.90
14735;DHT22;7458;49.002;8.472;2022-12-18T11:59:08;-1.70;99.90
14735;DHT22;7458;49.002;8.472;2022-12-18T12:13:08;-2.10;99.90
14735;DHT22;7458;49.002;8.472;2022-12-18T12:16:18;-2.00;99.90
14735;DHT22;7458;49.002;8.472;2022-12-18T12:25:13;-2.10;99.90
14735;DHT22;7458;49.002;8.472;2022-12-18T12:31:10;-1.90;99.90
14735;DHT22;7458;49.002;8.472;2022-12-18T12:34:00;-1.90;99.90
14735;DHT22;7458;49.002;8.472;2022-12-18T12:39:37;-1.80;99.90
14735;DHT22;7458;49.002;8.472;2022-12-18T12:45:16;-1.80;99.90
14735;DHT22;7458;49.002;8.472;2022-12-18T12:47:49;-1.70;99.90
14735;DHT22;7458;49.002;8.472;2022-12-18T12:50:19;-1.70;99.90
14735;DHT22;7458;49.002;8.472;2022-12-18T12:52:52;-1.40;99.90
14735;DHT22;7458;49.002;8.472;2022-12-18T12:55:25;-1.80;99.90
14735;DHT22;7458;49.002;8.472;2022-12-18T13:04:21;-1.60;99.90
14735;DHT22;7458;49.002;8.472;2022-12-18T13:07:23;-1.50;99.90
14735;DHT22;7458;49.002;8.472;2022-12-18T13:13:08;-1.60;99.90
14735;DHT22;7458;49.002;8.472;2022-12-18T13:34:27;-1.20;99.90
14735;DHT22;7458;49.002;8.472;2022-12-18T13:37:35;-0.50;99.90
14735;DHT22;7458;49.002;8.472;2022-12-18T13:39:58;-1.40;99.90
14735;DHT22;7458;49.002;8.472;2022-12-18T13:48:22;-1.40;99.90
14735;DHT22;7458;49.002;8.472;2022-12-18T13:51:03;-1.50;99.90
14735;DHT22;7458;49.002;8.472;2022-12-18T13:53:54;-1.50;99.90
14735;DHT22;7458;49.002;8.472;2022-12-18T13:56:29;-1.50;99.90
14735;DHT22;7458;49.002;8.472;2022-12-18T13:59:33;-1.50;99.90
14735;DHT22;7458;49.002;8.472;2022-12-18T14:02:07;-1.30;99.90
14735;DHT22;7458;49.002;8.472;2022-12-18T14:04:45;-1.50;99.90
14735;DHT22;7458;49.002;8.472;2022-12-18T14:07:18;-0.90;99.90
14735;DHT22;7458;49.002;8.472;2022-12-18T14:09:57;-0.20;99.90
14735;DHT22;7458;49.002;8.472;2022-12-18T14:12:30;1.60;99.90
14735;DHT22;7458;49.002;8.472;2022-12-18T14:20:54;0.50;99.90
14735;DHT22;7458;49.002;8.472;2022-12-18T14:23:35;-0.10;99.90
14735;DHT22;7458;49.002;8.472;2022-12-18T14:26:29;-0.40;99.90
14735;DHT22;7458;49.002;8.472;2022-12-18T14:29:11;-0.60;99.90
14735;DHT22;7458;49.002;8.472;2022-12-18T14:34:36;-0.20;99.90
14735;DHT22;7458;49.002;8.472;2022-12-18T14:37:10;-1.10;99.90
14735;DHT22;7458;49.002;8.472;2022-12-18T14:39:39;-1.20;99.90
14735;DHT22;7458;49.002;8.472;2022-12-18T14:42:09;-1.90;99.90
14735;DHT22;7458;49.002;8.472;2022-12-18T14:44:36;-1.30;99.90
14735;DHT22;7458;49.002;8.472;2022-12-18T14:47:01;-1.00;99.90
14735;DHT22;7458;49.002;8.472;2022-12-18T14:49:32;-1.40;99.90
14735;DHT22;7458;49.002;8.472;2022-12-18T14:52:05;-1.40;99.90
14735;DHT22;7458;49.002;8.472;2022-12-18T14:54:34;-1.40;99.90
14735;DHT22;7458;49.002;8.472;2022-12-18T14:59:48;-1.20;99.90
14735;DHT22;7458;49.002;8.472;2022-12-18T15:02:27;-1.40;99.90
14735;DHT22;7458;49.002;8.472;2022-12-18T15:05:14;-1.50;99.90
14735;DHT22;7458;49.002;8.472;2022-12-18T15:07:54;-1.40;99.90
14735;DHT22;7458;49.002;8.472;2022-12-18T15:23:22;-1.80;99.90
14735;DHT22;7458;49.002;8.472;2022-12-18T15:26:07;-1.80;99.90
14735;DHT22;7458;49.002;8.472;2022-12-18T15:28:56;-1.90;99.90
14735;DHT22;7458;49.002;8.472;2022-12-18T15:31:35;-1.80;99.90
14735;DHT22;7458;49.002;8.472;2022-12-18T15:36:33;-2.00;99.90
14735;DHT22;7458;49.002;8.472;2022-12-18T15:39:02;-1.90;99.90
14735;DHT22;7458;49.002;8.472;2022-12-18T15:41:32;-1.90;99.90
14735;DHT22;7458;49.002;8.472;2022-12-18T15:44:00;-1.90;99.90
14735;DHT22;7458;49.002;8.472;2022-12-18T15:46:26;-1.90;99.90
14735;DHT22;7458;49.002;8.472;2022-12-18T15:48:56;-1.90;99.90
14735;DHT22;7458;49.002;8.472;2022-12-18T15:51:23;-1.90;99.90
14735;DHT22;7458;49.002;8.472;2022-12-18T15:53:55;-1.90;99.90
14735;DHT22;7458;49.002;8.472;2022-12-18T15:56:24;-1.90;99.90
14735;DHT22;7458;49.002;8.472;2022-12-18T15:59:12;-1.90;99.90
14735;DHT22;7458;49.002;8.472;2022-12-18T16:01:41;-1.90;99.90
14735;DHT22;7458;49.002;8.472;2022-12-18T16:04:14;-1.90;99.90
14735;DHT22;7458;49.002;8.472;2022-12-18T16:06:44;-1.90;99.90
14735;DHT22;7458;49.002;8.472;2022-12-18T16:09:14;-1.80;99.90
14735;DHT22;7458;49.002;8.472;2022-12-18T16:11:42;-1.80;99.90
14735;DHT22;7458;49.002;8.472;2022-12-18T16:14:23;-1.80;99.90
14735;DHT22;7458;49.002;8.472;2022-12-18T16:16:56;-1.80;99.90
14735;DHT22;7458;49.002;8.472;2022-12-18T16:19:26;-1.60;99.90
14735;DHT22;7458;49.002;8.472;2022-12-18T16:21:55;-1.70;99.90
14735;DHT22;7458;49.002;8.472;2022-12-18T16:24:27;-1.00;99.90
14735;DHT22;7458;49.002;8.472;2022-12-18T16:26:57;-1.70;99.90
14735;DHT22;7458;49.002;8.472;2022-12-18T16:29:25;-1.70;99.90
14735;DHT22;7458;49.002;8.472;2022-12-18T16:31:57;-1.70;99.90
14735;DHT22;7458;49.002;8.472;2022-12-18T16:34:32;-1.20;99.90
14735;DHT22;7458;49.002;8.472;2022-12-18T16:37:07;-1.70;99.90
14735;DHT22;7458;49.002;8.472;2022-12-18T16:39:34;-1.70;99.90
14735;DHT22;7458;49.002;8.472;2022-12-18T16:42:03;-1.70;99.90
14735;DHT22;7458;49.002;8.472;2022-12-18T16:44:32;-1.60;99.90
14735;DHT22;7458;49.002;8.472;2022-12-18T16:46:58;-1.60;99.90
14735;DHT22;7458;49.002;8.472;2022-12-18T16:49:27;-1.60;99.90
14735;DHT22;7458;49.002;8.472;2022-12-18T16:51:54;-1.60;99.90
14735;DHT22;7458;49.002;8.472;2022-12-18T16:54:20;-1.70;99.90
14735;DHT22;7458;49.002;8.472;2022-12-18T16:56:46;-1.60;99.90
14735;DHT22;7458;49.002;8.472;2022-12-18T16:59:15;-1.20;99.90
14735;DHT22;7458;49.002;8.472;2022-12-18T17:01:41;-1.30;99.90
14735;DHT22;7458;49.002;8.472;2022-12-18T17:04:08;-1.70;99.90
14735;DHT22;7458;49.002;8.472;2022-12-18T17:06:38;-1.80;99.90
14735;DHT22;7458;49.002;8.472;2022-12-18T17:09:09;-1.70;99.90
14735;DHT22;7458;49.002;8.472;2022-12-18T17:11:36;-1.60;99.90
14735;DHT22;7458;49.002;8.472;2022-12-18T17:14:10;-1.60;99.90
14735;DHT22;7458;49.002;8.472;2022-12-18T17:16:39;-1.80;99.90
14735;DHT22;7458;49.002;8.472;2022-12-18T17:19:08;-1.30;99.90
14735;DHT22;7458;49.002;8.472;2022-12-18T17:21:38;-1.90;99.90
14735;DHT22;7458;49.002;8.472;2022-12-18T17:24:07;-1.90;99.90
14735;DHT22;7458;49.002;8.472;2022-12-18T17:26:33;-1.90;99.90
14735;DHT22;7458;49.002;8.472;2022-12-18T17:29:00;-1.90;99.90
14735;DHT22;7458;49.002;8.472;2022-12-18T17:31:27;-1.90;99.90
14735;DHT22;7458;49.002;8.472;2022-12-18T17:33:55;-2.00;99.90
14735;DHT22;7458;49.002;8.472;2022-12-18T17:36:21;-1.90;99.90
14735;DHT22;7458;49.002;8.472;2022-12-18T17:38:53;-0.80;99.90
14735;DHT22;7458;49.002;8.472;2022-12-18T17:41:21;-2.00;99.90
14735;DHT22;7458;49.002;8.472;2022-12-18T17:43:58;-2.10;99.90
14735;DHT22;7458;49.002;8.472;2022-12-18T17:46:27;-2.10;99.90
14735;DHT22;7458;49.002;8.472;2022-12-18T17:48:57;-2.10;99.90
14735;DHT22;7458;49.002;8.472;2022-12-18T17:51:24;-2.30;99.90
14735;DHT22;7458;49.002;8.472;2022-12-18T17:53:50;-1.40;99.90
14735;DHT22;7458;49.002;8.472;2022-12-18T17:56:19;-2.20;99.90
14735;DHT22;7458;49.002;8.472;2022-12-18T17:58:46;-1.80;99.90
14735;DHT22;7458;49.002;8.472;2022-12-18T18:01:14;-2.10;99.90
14735;DHT22;7458;49.002;8.472;2022-12-18T18:03:42;-2.20;99.90
14735;DHT22;7458;49.002;8.472;2022-12-18T18:06:09;-2.20;99.90
14735;DHT22;7458;49.002;8.472;2022-12-18T18:08:36;-0.30;99.90
14735;DHT22;7458;49.002;8.472;2022-12-18T18:11:06;-0.30;99.90
14735;DHT22;7458;49.002;8.472;2022-12-18T18:13:52;-0.70;99.90
14735;DHT22;7458;49.002;8.472;2022-12-18T18:16:38;-2.10;99.90
14735;DHT22;7458;49.002;8.472;2022-12-18T18:19:12;-2.20;99.90
14735;DHT22;7458;49.002;8.472;2022-12-18T18:21:44;-1.60;99.90
14735;DHT22;7458;49.002;8.472;2022-12-18T18:24:13;-1.60;99.90
14735;DHT22;7458;49.002;8.472;2022-12-18T18:26:41;-1.70;99.90
14735;DHT22;7458;49.002;8.472;2022-12-18T18:29:15;-1.90;99.90
14735;DHT22;7458;49.002;8.472;2022-12-18T18:31:43;-1.80;99.90
14735;DHT22;7458;49.002;8.472;2022-12-18T18:34:17;-2.10;99.90